Time;durP1;ratioP1;P1;durP2;ratioP2;P2;SDS_P1;SDS_P2;PMS_P1;PMS_P2;Temp;Humidity;BMP_temperature;BMP_pressure;BME280_temperature;BME280_humidity;BME280_pressure;Samples;Min_cycle;Max_cycle;Signal;HPM_P1;HPM_P2
2022/09/17 00:00:05;;;;;;;;;;;;;;;16.90;62.88;100982.63;1028149;28;663;-75
2022/09/17 00:00:57;;;;;;;;;;;;;;;16.92;62.91;100986.88;1031653;28;630;-76
2022/09/17 00:01:47;;;;;;;;;;;;;;;16.93;62.77;100993.13;1031889;28;634;-76
2022/09/17 00:02:38;;;;;;;;;;;;;;;16.64;61.84;100993.03;1027855;28;665;-76
2022/09/17 00:03:29;;;;;;;;;;;;;;;16.63;62.97;100994.00;1028582;28;693;-75
2022/09/17 00:04:19;;;;;;;;;;;;;;;16.70;62.73;100994.31;1031715;28;647;-76
2022/09/17 00:05:10;;;;;;;;;;;;;;;16.73;63.06;100986.81;1028539;28;642;-77
2022/09/17 00:06:00;;;;;;;;;;;;;;;16.78;63.06;100999.88;1028977;28;702;-76
2022/09/17 00:06:51;;;;;;;;;;;;;;;16.86;62.66;100994.66;1028979;28;717;-76
2022/09/17 00:07:41;;;;;;;;;;;;;;;16.85;62.35;100996.47;1028801;28;623;-76
2022/09/17 00:08:31;;;;;;;;;;;;;;;16.87;62.37;100996.34;1029341;28;923;-76
2022/09/17 00:09:22;;;;;;;;;;;;;;;16.88;62.19;100985.44;1028398;28;634;-76
2022/09/17 00:10:12;;;;;;;;;;;;;;;16.91;62.03;100989.72;1028869;28;658;-76
2022/09/17 00:11:03;;;;;;;;;;;;;;;16.87;62.32;100994.50;1028813;28;559;-75
2022/09/17 00:11:53;;;;;;;;;;;;;;;16.88;62.25;100996.22;1028949;28;662;-76
2022/09/17 00:12:43;;;;;;;;;;;;;;;16.90;62.37;100994.25;1028813;28;639;-75
2022/09/17 00:13:34;;;;;;;;;;;;;;;16.88;62.53;100988.13;1025103;28;653;-75
2022/09/17 00:14:24;;;;;;;;;;;;;;;16.88;62.80;100995.38;1024730;28;620;-75
2022/09/17 00:15:15;;;;;;;;;;;;;;;16.81;62.71;100999.59;1028702;28;646;-75
2022/09/17 00:16:05;;;;;;;;;;;;;;;16.79;62.61;100996.19;1029407;28;578;-76
2022/09/17 00:16:56;;;;;;;;;;;;;;;16.82;62.93;100996.78;1028841;28;653;-75
2022/09/17 00:17:46;;;;;;;;;;;;;;;16.87;62.81;100996.34;1025194;28;725;-75
2022/09/17 00:18:40;;;;;;;;;;;;;;;16.87;62.39;101009.81;1024461;28;1898;-75
2022/09/17 00:19:30;;;;;;;;;;;;;;;16.85;63.06;101012.63;1028809;28;674;-75
2022/09/17 00:20:21;;;;;;;;;;;;;;;16.90;62.32;101007.69;1028863;28;689;-75
2022/09/17 00:21:11;;;;;;;;;;;;;;;16.89;62.13;101008.69;1029421;28;661;-76
2022/09/17 00:22:02;;;;;;;;;;;;;;;16.91;62.94;101009.41;1028829;28;669;-75
2022/09/17 00:22:52;;;;;;;;;;;;;;;16.89;62.54;101006.00;1028892;28;798;-75
2022/09/17 00:23:43;;;;;;;;;;;;;;;16.78;61.06;101008.81;1028541;28;626;-75
2022/09/17 00:24:33;;;;;;;;;;;;;;;16.70;62.88;101008.59;1029234;28;1695;-75
2022/09/17 00:25:23;;;;;;;;;;;;;;;16.78;62.48;100997.19;1032948;28;658;-75
2022/09/17 00:26:14;;;;;;;;;;;;;;;16.82;62.39;101002.16;1032854;28;611;-75
2022/09/17 00:27:04;;;;;;;;;;;;;;;16.82;62.94;100998.63;1032929;28;749;-74
2022/09/17 00:27:55;;;;;;;;;;;;;;;16.75;62.06;101003.69;1032711;28;611;-74
2022/09/17 00:28:48;;;;;;;;;;;;;;;16.70;62.47;101005.06;1037280;28;1202;-74
2022/09/17 00:29:38;;;;;;;;;;;;;;;16.65;63.07;101003.66;1036296;28;655;-75
2022/09/17 00:30:29;;;;;;;;;;;;;;;16.57;62.86;101008.81;1036360;28;692;-75
2022/09/17 00:31:19;;;;;;;;;;;;;;;16.57;63.00;101007.97;1036301;28;610;-76
2022/09/17 00:32:09;;;;;;;;;;;;;;;16.58;63.15;100997.06;1036523;28;636;-75
2022/09/17 00:33:00;;;;;;;;;;;;;;;16.59;62.49;101004.16;1036302;28;609;-75
2022/09/17 00:33:50;;;;;;;;;;;;;;;16.70;62.80;101008.59;1036267;28;690;-75
2022/09/17 00:34:41;;;;;;;;;;;;;;;16.73;62.60;101005.66;1036216;28;698;-74
2022/09/17 00:35:31;;;;;;;;;;;;;;;16.62;62.30;101011.09;1036318;28;693;-75
2022/09/17 00:36:22;;;;;;;;;;;;;;;16.56;63.14;101014.31;1036150;28;847;-75
2022/09/17 00:37:12;;;;;;;;;;;;;;;16.54;62.38;101002.84;1036338;28;632;-75
2022/09/17 00:38:03;;;;;;;;;;;;;;;16.66;62.57;101009.84;1035971;28;659;-75
2022/09/17 00:38:53;;;;;;;;;;;;;;;16.74;63.04;101004.66;1036463;28;658;-76
2022/09/17 00:39:43;;;;;;;;;;;;;;;16.82;62.37;101007.53;1036373;28;701;-76
2022/09/17 00:40:34;;;;;;;;;;;;;;;16.84;62.52;101007.41;1036270;28;677;-77
2022/09/17 00:41:24;;;;;;;;;;;;;;;16.85;62.20;101014.47;1036355;28;611;-77
2022/09/17 00:42:15;;;;;;;;;;;;;;;16.81;62.78;101005.84;1036043;28;654;-74
2022/09/17 00:43:05;;;;;;;;;;;;;;;16.80;62.11;101003.28;1036276;28;634;-77
2022/09/17 00:43:59;;;;;;;;;;;;;;;16.81;62.14;101013.91;1036317;28;647;-74
2022/09/17 00:44:50;;;;;;;;;;;;;;;16.73;61.34;101010.19;1036180;28;1691;-75
2022/09/17 00:45:40;;;;;;;;;;;;;;;16.73;62.66;101002.97;1036935;28;664;-74
2022/09/17 00:46:31;;;;;;;;;;;;;;;16.75;62.62;101009.06;1037143;28;635;-74
2022/09/17 00:47:21;;;;;;;;;;;;;;;16.74;62.73;101009.19;1037088;28;1197;-75
2022/09/17 00:48:12;;;;;;;;;;;;;;;16.76;62.61;101010.78;1037025;28;666;-75
2022/09/17 00:49:02;;;;;;;;;;;;;;;16.80;62.75;101014.03;1037067;28;665;-74
2022/09/17 00:49:53;;;;;;;;;;;;;;;16.80;62.71;101004.13;1037161;28;576;-74
2022/09/17 00:50:43;;;;;;;;;;;;;;;16.83;62.61;101013.78;1037020;28;681;-75
2022/09/17 00:51:34;;;;;;;;;;;;;;;16.84;61.96;101010.94;1037080;28;642;-74
2022/09/17 00:52:24;;;;;;;;;;;;;;;16.72;61.09;101012.03;1037023;28;626;-74
2022/09/17 00:53:14;;;;;;;;;;;;;;;16.71;62.37;101010.31;1037188;28;670;-75
2022/09/17 00:54:05;;;;;;;;;;;;;;;16.66;62.41;101015.25;1036234;28;1891;-75
2022/09/17 00:54:56;;;;;;;;;;;;;;;16.73;62.82;101007.50;1037322;28;629;-75
2022/09/17 00:55:47;;;;;;;;;;;;;;;16.78;62.67;101005.25;1036214;28;615;-75
2022/09/17 00:56:37;;;;;;;;;;;;;;;16.76;62.37;101007.22;1036532;28;650;-75
2022/09/17 00:57:28;;;;;;;;;;;;;;;16.76;62.40;101005.38;1037025;28;681;-75
2022/09/17 00:58:18;;;;;;;;;;;;;;;16.78;62.18;101011.50;1037094;28;673;-76
2022/09/17 00:59:09;;;;;;;;;;;;;;;16.81;62.30;101011.22;1037284;28;637;-75
2022/09/17 00:59:59;;;;;;;;;;;;;;;16.86;61.91;101014.34;1037078;28;912;-76
2022/09/17 01:00:49;;;;;;;;;;;;;;;16.85;62.14;101017.16;1037079;28;703;-75
2022/09/17 01:01:40;;;;;;;;;;;;;;;16.82;62.57;101012.06;1037007;28;681;-75
2022/09/17 01:02:30;;;;;;;;;;;;;;;16.86;62.60;101010.78;1037132;28;728;-75
2022/09/17 01:03:21;;;;;;;;;;;;;;;16.82;61.59;101012.94;1037630;28;725;-75
2022/09/17 01:04:11;;;;;;;;;;;;;;;16.82;62.27;101006.69;1037121;28;654;-75
2022/09/17 01:05:02;;;;;;;;;;;;;;;16.75;61.30;101002.81;1036816;28;1603;-75
2022/09/17 01:05:52;;;;;;;;;;;;;;;16.59;62.87;101005.97;1036998;28;662;-75
2022/09/17 01:06:42;;;;;;;;;;;;;;;16.59;62.29;101005.97;1036368;28;1580;-76
2022/09/17 01:07:33;;;;;;;;;;;;;;;16.50;61.53;101012.16;1036383;28;545;-75
2022/09/17 01:08:23;;;;;;;;;;;;;;;16.57;62.46;101013.34;1036479;28;920;-75
2022/09/17 01:09:14;;;;;;;;;;;;;;;16.60;62.63;101013.06;1037261;28;777;-75
2022/09/17 01:10:04;;;;;;;;;;;;;;;16.64;62.22;101010.03;1036092;28;603;-75
2022/09/17 01:10:55;;;;;;;;;;;;;;;16.66;62.50;101010.72;1036657;28;745;-75
2022/09/17 01:11:45;;;;;;;;;;;;;;;16.71;62.02;101010.31;1037027;28;618;-76
2022/09/17 01:12:35;;;;;;;;;;;;;;;16.59;61.64;101012.22;1036174;28;737;-76
2022/09/17 01:13:26;;;;;;;;;;;;;;;16.55;62.02;101012.63;1036563;28;671;-75
2022/09/17 01:14:16;;;;;;;;;;;;;;;16.55;62.25;101013.47;1040208;28;630;-76
2022/09/17 01:15:07;;;;;;;;;;;;;;;16.55;61.61;101013.47;1036605;28;676;-76
2022/09/17 01:15:57;;;;;;;;;;;;;;;16.55;62.40;101012.63;1036993;28;681;-75
2022/09/17 01:16:47;;;;;;;;;;;;;;;16.61;62.85;101009.41;1037052;28;716;-75
2022/09/17 01:17:38;;;;;;;;;;;;;;;16.70;61.85;101019.38;1036815;28;809;-75
2022/09/17 01:18:28;;;;;;;;;;;;;;;16.64;61.91;101006.47;1036020;28;1894;-76
2022/09/17 01:19:21;;;;;;;;;;;;;;;16.68;62.26;101018.66;1036883;28;618;-75
2022/09/17 01:20:11;;;;;;;;;;;;;;;16.65;62.80;101010.88;1040253;28;638;-76
2022/09/17 01:21:01;;;;;;;;;;;;;;;16.73;62.08;101007.50;1036539;28;646;-76
2022/09/17 01:21:52;;;;;;;;;;;;;;;16.74;61.81;101014.56;1037120;28;670;-76
2022/09/17 01:22:42;;;;;;;;;;;;;;;16.62;61.99;101014.66;1036942;28;611;-76
2022/09/17 01:23:33;;;;;;;;;;;;;;;16.61;62.46;101014.78;1036509;28;586;-76
2022/09/17 01:24:23;;;;;;;;;;;;;;;16.57;61.28;101010.66;1036770;28;1587;-76
2022/09/17 01:25:14;;;;;;;;;;;;;;;16.54;61.85;101013.59;1036459;28;1571;-76
2022/09/17 01:26:04;;;;;;;;;;;;;;;16.47;62.04;101025.91;1037019;28;706;-76
2022/09/17 01:26:55;;;;;;;;;;;;;;;16.41;61.54;101021.03;1036663;28;1576;-76
2022/09/17 01:27:45;;;;;;;;;;;;;;;16.43;62.66;101013.69;1036777;28;1580;-76
2022/09/17 01:28:36;;;;;;;;;;;;;;;16.27;60.04;101023.09;1034025;28;1304;-76
2022/09/17 01:29:27;;;;;;;;;;;;;;;16.44;62.62;101023.47;1029044;28;618;-76
2022/09/17 01:30:20;;;;;;;;;;;;;;;16.51;61.90;101022.78;1024675;29;620;-76
2022/09/17 01:31:11;;;;;;;;;;;;;;;16.41;61.99;101019.19;1024676;29;639;-76
2022/09/17 01:32:01;;;;;;;;;;;;;;;16.41;61.52;101034.50;1028351;28;653;-76
2022/09/17 01:32:52;;;;;;;;;;;;;;;16.46;61.38;101030.44;1029392;28;678;-76
2022/09/17 01:33:43;;;;;;;;;;;;;;;16.34;61.48;101034.16;1029462;28;670;-76
2022/09/17 01:34:33;;;;;;;;;;;;;;;16.35;62.05;101029.63;1028217;28;613;-76
2022/09/17 01:35:24;;;;;;;;;;;;;;;16.36;61.04;101031.34;1029421;28;714;-76
2022/09/17 01:36:14;;;;;;;;;;;;;;;16.45;61.40;101033.25;1028917;28;686;-75
2022/09/17 01:37:05;;;;;;;;;;;;;;;16.31;60.71;101031.72;1029424;28;748;-75
2022/09/17 01:37:55;;;;;;;;;;;;;;;16.44;62.22;101028.84;1029366;28;693;-75
2022/09/17 01:38:46;;;;;;;;;;;;;;;16.47;61.89;101020.53;1029262;28;1966;-76
2022/09/17 01:39:36;;;;;;;;;;;;;;;16.40;60.98;101022.03;1028289;28;679;-75
2022/09/17 01:40:27;;;;;;;;;;;;;;;16.43;61.72;101027.13;1024506;29;666;-75
2022/09/17 01:41:17;;;;;;;;;;;;;;;16.46;61.72;101027.72;1024684;29;604;-75
2022/09/17 01:42:08;;;;;;;;;;;;;;;16.47;61.22;101028.59;1030331;28;1676;-75
2022/09/17 01:42:59;;;;;;;;;;;;;;;16.48;61.14;101023.03;1028576;28;565;-75
2022/09/17 01:43:49;;;;;;;;;;;;;;;16.51;61.86;101012.03;1029080;28;777;-75
2022/09/17 01:44:40;;;;;;;;;;;;;;;16.53;61.77;101014.59;1028262;28;629;-75
2022/09/17 01:45:30;;;;;;;;;;;;;;;16.62;61.69;101008.41;1028832;28;689;-75
2022/09/17 01:46:21;;;;;;;;;;;;;;;16.64;61.43;101010.03;1028731;28;733;-76
2022/09/17 01:47:12;;;;;;;;;;;;;;;16.60;61.23;101013.94;1030919;28;1269;-76
2022/09/17 01:48:03;;;;;;;;;;;;;;;16.62;61.32;101027.25;1032861;28;682;-76
2022/09/17 01:48:54;;;;;;;;;;;;;;;16.49;60.43;101021.22;1032680;28;791;-75
2022/09/17 01:49:44;;;;;;;;;;;;;;;16.42;61.23;101017.38;1032314;28;646;-75
2022/09/17 01:50:35;;;;;;;;;;;;;;;16.43;62.06;101016.38;1032717;28;1625;-75
2022/09/17 01:51:25;;;;;;;;;;;;;;;16.49;61.82;101019.38;1033397;28;651;-75
2022/09/17 01:52:16;;;;;;;;;;;;;;;16.57;61.49;101018.72;1032357;28;564;-76
2022/09/17 01:53:06;;;;;;;;;;;;;;;16.56;61.78;101020.56;1032214;28;572;-77
2022/09/17 01:53:57;;;;;;;;;;;;;;;16.55;62.02;101021.53;1032299;28;659;-76
2022/09/17 01:54:48;;;;;;;;;;;;;;;16.59;61.54;101022.13;1032734;28;647;-76
2022/09/17 01:55:38;;;;;;;;;;;;;;;16.59;61.41;101024.81;1032206;28;623;-75
2022/09/17 01:56:28;;;;;;;;;;;;;;;16.50;61.08;101022.91;1033423;28;662;-75
2022/09/17 01:57:20;;;;;;;;;;;;;;;16.55;61.35;101026.91;1033369;28;631;-75
2022/09/17 01:58:10;;;;;;;;;;;;;;;16.51;61.54;101028.16;1032154;28;635;-76
2022/09/17 01:59:01;;;;;;;;;;;;;;;16.52;61.89;101026.31;1032278;28;657;-75
2022/09/17 01:59:51;;;;;;;;;;;;;;;16.47;62.34;101024.06;1032796;28;627;-75
2022/09/17 02:00:42;;;;;;;;;;;;;;;16.51;61.59;101035.38;1028898;28;701;-75
2022/09/17 02:01:32;;;;;;;;;;;;;;;16.49;61.91;101038.19;1029023;28;650;-75
2022/09/17 02:02:23;;;;;;;;;;;;;;;16.59;61.48;101035.59;1028493;28;649;-75
2022/09/17 02:03:13;;;;;;;;;;;;;;;16.64;61.15;101034.25;1029244;28;674;-75
2022/09/17 02:04:03;;;;;;;;;;;;;;;16.57;62.01;101043.78;1028815;28;662;-74
2022/09/17 02:04:54;;;;;;;;;;;;;;;16.56;61.38;101039.38;1028702;28;670;-72
2022/09/17 02:05:44;;;;;;;;;;;;;;;16.37;60.38;101036.59;1028716;28;630;-74
2022/09/17 02:06:35;;;;;;;;;;;;;;;16.48;61.75;101036.50;1028817;28;694;-75
2022/09/17 02:07:25;;;;;;;;;;;;;;;16.57;62.20;101032.16;1028612;28;635;-75
2022/09/17 02:08:16;;;;;;;;;;;;;;;16.35;59.85;101037.69;1028816;28;650;-75
2022/09/17 02:09:06;;;;;;;;;;;;;;;16.47;62.44;101034.81;1028965;28;634;-75
2022/09/17 02:09:56;;;;;;;;;;;;;;;16.55;61.65;101032.31;1028526;28;654;-75
2022/09/17 02:10:47;;;;;;;;;;;;;;;16.62;61.55;101038.00;1028062;28;597;-74
2022/09/17 02:11:37;;;;;;;;;;;;;;;16.53;61.76;101038.78;1028670;28;689;-75
2022/09/17 02:12:28;;;;;;;;;;;;;;;16.53;61.22;101038.78;1028831;28;643;-75
2022/09/17 02:13:18;;;;;;;;;;;;;;;16.50;61.91;101028.28;1028636;28;559;-75
2022/09/17 02:14:09;;;;;;;;;;;;;;;16.48;62.14;101035.69;1028777;28;643;-75
2022/09/17 02:14:59;;;;;;;;;;;;;;;16.54;62.23;101035.97;1028649;28;631;-74
2022/09/17 02:15:49;;;;;;;;;;;;;;;16.50;61.99;101039.06;1028882;28;759;-75
2022/09/17 02:16:41;;;;;;;;;;;;;;;16.57;61.78;101040.25;1028341;28;622;-75
2022/09/17 02:17:31;;;;;;;;;;;;;;;16.60;61.78;101045.34;1029347;28;622;-75
2022/09/17 02:18:22;;;;;;;;;;;;;;;16.51;61.02;101036.25;1028810;28;666;-75
2022/09/17 02:19:12;;;;;;;;;;;;;;;16.58;61.65;101028.50;1028613;28;635;-74
2022/09/17 02:20:03;;;;;;;;;;;;;;;16.61;61.93;101036.31;1030357;28;1550;-74
2022/09/17 02:20:53;;;;;;;;;;;;;;;16.54;62.05;101040.50;1032097;28;599;-74
2022/09/17 02:21:43;;;;;;;;;;;;;;;16.55;61.90;101039.53;1032224;28;812;-74
2022/09/17 02:22:34;;;;;;;;;;;;;;;16.61;61.68;101039.00;1032099;28;575;-74
2022/09/17 02:23:24;;;;;;;;;;;;;;;16.63;61.65;101043.28;1032179;28;682;-74
2022/09/17 02:24:16;;;;;;;;;;;;;;;16.59;61.82;101044.50;1033190;28;634;-74
2022/09/17 02:25:07;;;;;;;;;;;;;;;16.42;59.25;101049.66;1032233;28;579;-74
2022/09/17 02:25:58;;;;;;;;;;;;;;;16.43;61.87;101049.50;1032576;28;650;-74
2022/09/17 02:26:48;;;;;;;;;;;;;;;16.36;60.56;101052.84;1032017;28;628;-74
2022/09/17 02:27:40;;;;;;;;;;;;;;;16.44;61.92;101051.22;1032214;28;668;-76
2022/09/17 02:28:31;;;;;;;;;;;;;;;16.41;60.94;101050.63;1034114;28;1399;-75
2022/09/17 02:29:21;;;;;;;;;;;;;;;16.31;60.63;101061.31;1036685;28;638;-75
2022/09/17 02:30:11;;;;;;;;;;;;;;;16.38;61.86;101049.06;1035802;28;677;-75
2022/09/17 02:31:02;;;;;;;;;;;;;;;16.38;61.84;101054.44;1036010;28;670;-75
2022/09/17 02:31:52;;;;;;;;;;;;;;;16.48;61.96;101054.50;1036176;28;607;-75
2022/09/17 02:32:43;;;;;;;;;;;;;;;16.56;61.96;101046.59;1036852;28;701;-75
2022/09/17 02:33:33;;;;;;;;;;;;;;;16.59;61.54;101046.34;1036689;28;607;-76
2022/09/17 02:34:24;;;;;;;;;;;;;;;16.45;62.05;101047.56;1035489;28;768;-76
2022/09/17 02:35:15;;;;;;;;;;;;;;;16.40;61.46;101052.47;1036363;28;629;-75
2022/09/17 02:36:05;;;;;;;;;;;;;;;16.37;60.53;101050.03;1036101;28;630;-75
2022/09/17 02:36:57;;;;;;;;;;;;;;;16.46;61.48;101053.78;1036817;28;673;-75
2022/09/17 02:37:47;;;;;;;;;;;;;;;16.55;61.51;101047.59;1036668;28;725;-75
2022/09/17 02:38:38;;;;;;;;;;;;;;;16.42;61.78;101055.88;1036035;28;1918;-75
2022/09/17 02:39:28;;;;;;;;;;;;;;;16.31;60.22;101055.94;1036658;28;686;-75
2022/09/17 02:40:19;;;;;;;;;;;;;;;16.27;61.91;101047.28;1036071;28;1715;-75
2022/09/17 02:41:09;;;;;;;;;;;;;;;16.41;62.21;101056.84;1036682;28;763;-75
2022/09/17 02:41:59;;;;;;;;;;;;;;;16.48;62.09;101052.63;1036504;28;1600;-75
2022/09/17 02:42:50;;;;;;;;;;;;;;;16.58;61.66;101060.78;1036755;28;614;-75
2022/09/17 02:43:40;;;;;;;;;;;;;;;16.58;61.75;101048.19;1036659;28;640;-75
2022/09/17 02:44:31;;;;;;;;;;;;;;;16.60;61.53;101051.59;1036696;28;689;-74
2022/09/17 02:45:21;;;;;;;;;;;;;;;16.61;61.31;101056.00;1035766;28;636;-75
2022/09/17 02:46:12;;;;;;;;;;;;;;;16.60;61.64;101053.44;1035801;28;654;-74
2022/09/17 02:47:02;;;;;;;;;;;;;;;16.46;61.87;101059.16;1035955;28;1245;-76
2022/09/17 02:47:53;;;;;;;;;;;;;;;16.49;62.00;101057.03;1036892;28;564;-75
2022/09/17 02:48:43;;;;;;;;;;;;;;;16.45;62.06;101060.16;1036463;28;643;-75
2022/09/17 02:49:33;;;;;;;;;;;;;;;16.36;60.69;101059.09;1036758;28;668;-75
2022/09/17 02:50:24;;;;;;;;;;;;;;;16.29;61.94;101066.84;1036622;28;639;-74
2022/09/17 02:51:14;;;;;;;;;;;;;;;16.22;61.07;101065.66;1036575;28;623;-74
2022/09/17 02:52:06;;;;;;;;;;;;;;;16.31;62.39;101070.22;1036705;28;618;-75
2022/09/17 02:52:56;;;;;;;;;;;;;;;16.41;61.71;101062.25;1036288;28;635;-74
2022/09/17 02:53:47;;;;;;;;;;;;;;;16.30;61.95;101062.31;1036997;28;638;-74
2022/09/17 02:54:37;;;;;;;;;;;;;;;16.31;61.81;101069.38;1037185;28;634;-75
2022/09/17 02:55:27;;;;;;;;;;;;;;;16.18;60.79;101066.88;1036464;28;673;-74
2022/09/17 02:56:18;;;;;;;;;;;;;;;16.20;62.12;101064.91;1036672;28;743;-75
2022/09/17 02:57:08;;;;;;;;;;;;;;;16.32;62.18;101061.19;1036675;28;709;-74
2022/09/17 02:57:59;;;;;;;;;;;;;;;16.31;61.73;101067.53;1036617;28;638;-74
2022/09/17 02:58:51;;;;;;;;;;;;;;;16.42;62.09;101060.41;1036434;28;1886;-75
2022/09/17 02:59:42;;;;;;;;;;;;;;;16.49;61.60;101048.09;1036494;28;638;-74
2022/09/17 03:00:33;;;;;;;;;;;;;;;16.58;61.09;101052.72;1035894;28;1713;-75
2022/09/17 03:01:23;;;;;;;;;;;;;;;16.59;61.05;101049.03;1035498;28;616;-75
2022/09/17 03:02:13;;;;;;;;;;;;;;;16.47;61.70;101050.09;1035708;28;713;-74
2022/09/17 03:03:04;;;;;;;;;;;;;;;16.53;61.41;101058.47;1035713;28;663;-74
2022/09/17 03:03:55;;;;;;;;;;;;;;;16.56;61.04;101049.28;1036494;28;607;-75
2022/09/17 03:04:45;;;;;;;;;;;;;;;16.53;61.12;101052.25;1036531;28;646;-75
2022/09/17 03:05:36;;;;;;;;;;;;;;;16.57;61.00;101046.47;1036512;28;642;-75
2022/09/17 03:06:26;;;;;;;;;;;;;;;16.56;61.62;101043.91;1036460;28;647;-74
2022/09/17 03:07:17;;;;;;;;;;;;;;;16.60;61.75;101045.34;1036526;28;650;-75
2022/09/17 03:08:07;;;;;;;;;;;;;;;16.55;60.41;101048.44;1036809;28;626;-74
2022/09/17 03:08:58;;;;;;;;;;;;;;;16.54;61.06;101045.88;1032239;28;1641;-75
2022/09/17 03:09:48;;;;;;;;;;;;;;;16.58;61.55;101042.81;1032393;28;649;-74
2022/09/17 03:10:39;;;;;;;;;;;;;;;16.56;61.13;101043.91;1032522;28;650;-75
2022/09/17 03:11:29;;;;;;;;;;;;;;;16.39;61.25;101044.53;1032421;28;561;-74
2022/09/17 03:12:23;;;;;;;;;;;;;;;16.29;61.44;101044.47;1032474;28;651;-75
2022/09/17 03:13:13;;;;;;;;;;;;;;;16.30;61.54;101048.88;1032433;28;731;-75
2022/09/17 03:14:04;;;;;;;;;;;;;;;16.43;61.95;101037.91;1032518;28;662;-75
2022/09/17 03:14:54;;;;;;;;;;;;;;;16.50;61.66;101044.44;1032492;28;615;-75
2022/09/17 03:15:45;;;;;;;;;;;;;;;16.56;61.10;101044.78;1032613;28;682;-75
2022/09/17 03:16:35;;;;;;;;;;;;;;;16.61;60.96;101036.31;1032989;28;591;-74
2022/09/17 03:17:25;;;;;;;;;;;;;;;16.62;61.01;101048.78;1032413;28;631;-75
2022/09/17 03:18:16;;;;;;;;;;;;;;;16.65;61.13;101043.16;1032367;28;607;-75
2022/09/17 03:19:07;;;;;;;;;;;;;;;16.61;61.44;101039.00;1032409;28;574;-74
2022/09/17 03:19:57;;;;;;;;;;;;;;;16.62;61.46;101038.00;1033610;28;619;-74
2022/09/17 03:20:47;;;;;;;;;;;;;;;16.53;60.79;101045.03;1035687;28;1589;-75
2022/09/17 03:21:38;;;;;;;;;;;;;;;16.55;61.26;101043.06;1036589;28;678;-74
2022/09/17 03:22:28;;;;;;;;;;;;;;;16.58;61.22;101041.94;1036275;28;1548;-74
2022/09/17 03:23:19;;;;;;;;;;;;;;;16.44;61.44;101037.78;1036547;28;690;-74
2022/09/17 03:24:10;;;;;;;;;;;;;;;16.35;60.33;101045.75;1036446;28;600;-74
2022/09/17 03:25:01;;;;;;;;;;;;;;;16.35;61.75;101046.63;1036548;28;670;-74
2022/09/17 03:25:51;;;;;;;;;;;;;;;16.25;61.63;101041.19;1036496;28;670;-74
2022/09/17 03:26:42;;;;;;;;;;;;;;;16.29;61.83;101039.09;1036548;28;678;-74
2022/09/17 03:27:33;;;;;;;;;;;;;;;16.41;61.89;101035.34;1036447;28;641;-74
2022/09/17 03:28:25;;;;;;;;;;;;;;;16.51;61.65;101035.38;1036241;28;1128;-74
2022/09/17 03:29:15;;;;;;;;;;;;;;;16.45;59.72;101035.94;1035526;28;1045;-74
2022/09/17 03:30:06;;;;;;;;;;;;;;;16.43;61.78;101040.59;1035640;28;661;-74
2022/09/17 03:30:56;;;;;;;;;;;;;;;16.49;61.42;101048.09;1035684;28;643;-74
2022/09/17 03:31:47;;;;;;;;;;;;;;;16.47;61.09;101044.72;1036440;28;619;-75
2022/09/17 03:32:37;;;;;;;;;;;;;;;16.45;61.52;101039.47;1036453;28;571;-74
2022/09/17 03:33:27;;;;;;;;;;;;;;;16.48;61.51;101038.38;1036404;28;654;-74
2022/09/17 03:34:19;;;;;;;;;;;;;;;16.52;61.09;101037.94;1036483;28;618;-74
2022/09/17 03:35:10;;;;;;;;;;;;;;;16.57;60.96;101030.34;1036419;28;678;-74
2022/09/17 03:36:00;;;;;;;;;;;;;;;16.57;61.21;101034.88;1036381;28;607;-74
2022/09/17 03:36:51;;;;;;;;;;;;;;;16.43;58.81;101038.75;1036520;28;717;-74
2022/09/17 03:37:42;;;;;;;;;;;;;;;16.45;61.77;101042.16;1036303;28;638;-74
2022/09/17 03:38:33;;;;;;;;;;;;;;;16.53;61.46;101036.09;1036392;28;1918;-75
2022/09/17 03:39:23;;;;;;;;;;;;;;;16.55;61.34;101039.53;1036417;28;619;-74
2022/09/17 03:40:14;;;;;;;;;;;;;;;16.57;61.31;101032.16;1036201;28;1616;-74
2022/09/17 03:41:05;;;;;;;;;;;;;;;16.57;60.58;101035.72;1036480;28;659;-74
2022/09/17 03:41:56;;;;;;;;;;;;;;;16.60;60.95;101045.34;1036557;28;685;-74
2022/09/17 03:42:46;;;;;;;;;;;;;;;16.47;61.40;101048.28;1036443;28;666;-74
2022/09/17 03:43:38;;;;;;;;;;;;;;;16.44;61.42;101045.84;1036459;28;661;-74
2022/09/17 03:44:29;;;;;;;;;;;;;;;16.48;61.11;101063.41;1036127;28;618;-74
2022/09/17 03:45:19;;;;;;;;;;;;;;;16.37;61.54;101060.78;1035953;28;801;-74
2022/09/17 03:46:09;;;;;;;;;;;;;;;16.46;61.51;101070.78;1040106;28;613;-75
2022/09/17 03:47:00;;;;;;;;;;;;;;;16.44;61.20;101063.81;1040084;28;1193;-75
2022/09/17 03:47:50;;;;;;;;;;;;;;;16.37;61.35;101071.56;1037672;28;660;-74
2022/09/17 03:48:41;;;;;;;;;;;;;;;16.37;61.28;101068.00;1035837;28;693;-75
2022/09/17 03:49:31;;;;;;;;;;;;;;;16.40;60.49;101055.16;1035601;28;627;-75
2022/09/17 03:50:22;;;;;;;;;;;;;;;16.41;61.02;101061.38;1035988;28;635;-75
2022/09/17 03:51:12;;;;;;;;;;;;;;;16.40;60.30;101075.81;1035806;28;746;-75
2022/09/17 03:52:03;;;;;;;;;;;;;;;16.37;61.39;101074.25;1036716;28;701;-75
2022/09/17 03:52:53;;;;;;;;;;;;;;;16.23;59.45;101083.50;1036114;28;629;-74
2022/09/17 03:53:44;;;;;;;;;;;;;;;16.12;60.92;101075.47;1035880;28;630;-75
2022/09/17 03:54:34;;;;;;;;;;;;;;;16.18;61.06;101072.25;1035743;28;614;-74
2022/09/17 03:55:25;;;;;;;;;;;;;;;16.30;61.39;101068.53;1035965;28;732;-74
2022/09/17 03:56:16;;;;;;;;;;;;;;;16.36;60.12;101053.69;1036305;28;755;-75
2022/09/17 03:57:07;;;;;;;;;;;;;;;16.39;60.76;101056.13;1036008;28;726;-75
2022/09/17 03:57:57;;;;;;;;;;;;;;;16.31;59.38;101053.25;1035607;28;602;-75
2022/09/17 03:58:47;;;;;;;;;;;;;;;16.26;61.41;101059.03;1035787;28;1969;-75
2022/09/17 03:59:38;;;;;;;;;;;;;;;16.29;60.59;101045.31;1035924;28;631;-75
2022/09/17 04:00:29;;;;;;;;;;;;;;;16.33;60.99;101043.19;1036438;28;1516;-75
2022/09/17 04:01:19;;;;;;;;;;;;;;;16.38;61.19;101042.81;1035904;28;709;-75
2022/09/17 04:02:09;;;;;;;;;;;;;;;16.46;60.74;101057.31;1036333;28;1027;-74
2022/09/17 04:03:00;;;;;;;;;;;;;;;16.49;60.54;101053.50;1036455;28;619;-74
2022/09/17 04:03:51;;;;;;;;;;;;;;;16.52;60.76;101056.78;1035793;28;550;-74
2022/09/17 04:04:41;;;;;;;;;;;;;;;16.52;60.54;101051.41;1036408;28;677;-74
2022/09/17 04:05:31;;;;;;;;;;;;;;;16.47;58.92;101053.66;1036305;28;697;-75
2022/09/17 04:06:22;;;;;;;;;;;;;;;16.42;61.17;101047.81;1036377;28;654;-74
2022/09/17 04:07:12;;;;;;;;;;;;;;;16.49;60.75;101043.59;1035795;28;662;-75
2022/09/17 04:08:03;;;;;;;;;;;;;;;16.47;60.79;101052.81;1036572;28;595;-74
2022/09/17 04:08:53;;;;;;;;;;;;;;;16.27;58.80;101046.44;1036642;28;689;-75
2022/09/17 04:09:44;;;;;;;;;;;;;;;16.31;60.99;101056.78;1036369;28;702;-74
2022/09/17 04:10:34;;;;;;;;;;;;;;;16.29;60.10;101058.78;1036241;28;677;-74
2022/09/17 04:11:24;;;;;;;;;;;;;;;16.39;61.11;101058.81;1036322;28;685;-75
2022/09/17 04:12:15;;;;;;;;;;;;;;;16.35;60.86;101061.91;1036383;28;770;-75
2022/09/17 04:13:05;;;;;;;;;;;;;;;16.35;61.21;101056.53;1036591;28;681;-75
2022/09/17 04:13:56;;;;;;;;;;;;;;;16.42;60.96;101058.56;1036649;28;693;-75
2022/09/17 04:14:47;;;;;;;;;;;;;;;16.43;61.20;101059.41;1036310;28;621;-75
2022/09/17 04:15:37;;;;;;;;;;;;;;;16.22;59.69;101070.16;1036440;28;882;-75
2022/09/17 04:16:28;;;;;;;;;;;;;;;16.29;60.95;101071.38;1036301;28;622;-75
2022/09/17 04:17:18;;;;;;;;;;;;;;;16.14;60.57;101070.81;1036525;28;630;-75
2022/09/17 04:18:09;;;;;;;;;;;;;;;16.26;61.28;101074.31;1032032;28;685;-75
2022/09/17 04:19:00;;;;;;;;;;;;;;;16.26;60.92;101075.16;1035853;28;607;-74
2022/09/17 04:19:50;;;;;;;;;;;;;;;16.28;61.22;101080.41;1038271;28;650;-75
2022/09/17 04:20:40;;;;;;;;;;;;;;;16.38;61.01;101081.31;1033607;28;686;-74
2022/09/17 04:21:31;;;;;;;;;;;;;;;16.43;60.72;101080.94;1033718;28;638;-74
2022/09/17 04:22:21;;;;;;;;;;;;;;;16.44;60.73;101071.88;1033560;28;615;-74
2022/09/17 04:23:12;;;;;;;;;;;;;;;16.30;60.11;101081.97;1033134;28;618;-74
2022/09/17 04:24:02;;;;;;;;;;;;;;;16.34;61.29;101077.19;1033588;28;647;-74
2022/09/17 04:24:53;;;;;;;;;;;;;;;16.41;60.81;101072.16;1033525;28;557;-74
2022/09/17 04:25:43;;;;;;;;;;;;;;;16.28;61.03;101081.28;1032919;28;684;-75